sensor_id;sensor_type;location;lat;lon;timestamp;P1;durP1;ratioP1;P2;durP2;ratioP2
61473;SDS011;53694;49.784;30.150;2023-02-28T00:00:20;6.95;;;3.96;;
61473;SDS011;53694;49.784;30.150;2023-02-28T00:01:23;7.78;;;4.29;;
61473;SDS011;53694;49.784;30.150;2023-02-28T00:02:25;8.07;;;4.81;;
61473;SDS011;53694;49.784;30.150;2023-02-28T00:03:26;8.36;;;4.57;;
61473;SDS011;53694;49.784;30.150;2023-02-28T00:04:28;9.33;;;5.04;;
61473;SDS011;53694;49.784;30.150;2023-02-28T00:05:29;11.18;;;5.64;;
61473;SDS011;53694;49.784;30.150;2023-02-28T00:06:31;10.15;;;5.76;;
61473;SDS011;53694;49.784;30.150;2023-02-28T00:07:32;8.97;;;5.61;;
61473;SDS011;53694;49.784;30.150;2023-02-28T00:08:35;8.93;;;5.53;;
61473;SDS011;53694;49.784;30.150;2023-02-28T00:09:36;8.72;;;5.63;;
61473;SDS011;53694;49.784;30.150;2023-02-28T00:10:38;10.47;;;6.03;;
61473;SDS011;53694;49.784;30.150;2023-02-28T00:11:40;8.51;;;5.54;;
61473;SDS011;53694;49.784;30.150;2023-02-28T00:12:41;10.57;;;5.72;;
61473;SDS011;53694;49.784;30.150;2023-02-28T00:13:44;10.19;;;5.33;;
61473;SDS011;53694;49.784;30.150;2023-02-28T00:14:46;13.24;;;6.36;;
61473;SDS011;53694;49.784;30.150;2023-02-28T00:15:57;10.70;;;6.24;;
61473;SDS011;53694;49.784;30.150;2023-02-28T00:16:53;9.10;;;5.84;;
61473;SDS011;53694;49.784;30.150;2023-02-28T00:17:54;8.96;;;5.43;;
61473;SDS011;53694;49.784;30.150;2023-02-28T00:18:56;11.47;;;5.75;;
61473;SDS011;53694;49.784;30.150;2023-02-28T00:19:57;12.37;;;5.69;;
61473;SDS011;53694;49.784;30.150;2023-02-28T00:20:59;10.07;;;6.39;;
61473;SDS011;53694;49.784;30.150;2023-02-28T00:22:00;11.11;;;5.89;;
61473;SDS011;53694;49.784;30.150;2023-02-28T00:23:02;12.44;;;6.18;;
61473;SDS011;53694;49.784;30.150;2023-02-28T00:24:04;11.11;;;6.15;;
61473;SDS011;53694;49.784;30.150;2023-02-28T00:25:06;9.32;;;5.87;;
61473;SDS011;53694;49.784;30.150;2023-02-28T00:26:10;12.59;;;6.32;;
61473;SDS011;53694;49.784;30.150;2023-02-28T00:27:11;14.48;;;6.64;;
61473;SDS011;53694;49.784;30.150;2023-02-28T00:28:13;11.37;;;5.83;;
61473;SDS011;53694;49.784;30.150;2023-02-28T00:29:15;8.23;;;4.75;;
61473;SDS011;53694;49.784;30.150;2023-02-28T00:30:18;9.49;;;4.26;;
61473;SDS011;53694;49.784;30.150;2023-02-28T00:31:21;8.14;;;3.90;;
61473;SDS011;53694;49.784;30.150;2023-02-28T00:32:23;7.69;;;4.06;;
61473;SDS011;53694;49.784;30.150;2023-02-28T00:33:24;6.63;;;3.04;;
61473;SDS011;53694;49.784;30.150;2023-02-28T00:34:26;7.01;;;3.86;;
61473;SDS011;53694;49.784;30.150;2023-02-28T00:35:28;7.91;;;3.99;;
61473;SDS011;53694;49.784;30.150;2023-02-28T00:36:29;8.13;;;4.65;;
61473;SDS011;53694;49.784;30.150;2023-02-28T00:37:31;9.09;;;5.09;;
61473;SDS011;53694;49.784;30.150;2023-02-28T00:38:33;11.99;;;5.21;;
61473;SDS011;53694;49.784;30.150;2023-02-28T00:39:35;10.33;;;5.16;;
61473;SDS011;53694;49.784;30.150;2023-02-28T00:40:37;10.17;;;5.44;;
61473;SDS011;53694;49.784;30.150;2023-02-28T00:41:39;9.74;;;5.09;;
61473;SDS011;53694;49.784;30.150;2023-02-28T00:42:40;11.07;;;5.39;;
61473;SDS011;53694;49.784;30.150;2023-02-28T00:43:42;11.24;;;5.48;;
61473;SDS011;53694;49.784;30.150;2023-02-28T00:44:43;10.71;;;5.34;;
61473;SDS011;53694;49.784;30.150;2023-02-28T00:45:45;12.83;;;5.81;;
61473;SDS011;53694;49.784;30.150;2023-02-28T00:46:47;10.01;;;5.81;;
61473;SDS011;53694;49.784;30.150;2023-02-28T00:47:48;10.00;;;5.76;;
61473;SDS011;53694;49.784;30.150;2023-02-28T00:48:50;11.17;;;5.69;;
61473;SDS011;53694;49.784;30.150;2023-02-28T00:49:51;8.81;;;5.52;;
61473;SDS011;53694;49.784;30.150;2023-02-28T00:50:53;9.61;;;5.42;;
61473;SDS011;53694;49.784;30.150;2023-02-28T00:51:55;11.92;;;5.91;;
61473;SDS011;53694;49.784;30.150;2023-02-28T00:52:56;12.89;;;6.07;;
61473;SDS011;53694;49.784;30.150;2023-02-28T00:53:58;11.42;;;5.74;;
61473;SDS011;53694;49.784;30.150;2023-02-28T00:54:59;10.49;;;6.51;;
61473;SDS011;53694;49.784;30.150;2023-02-28T00:56:01;13.65;;;6.65;;
61473;SDS011;53694;49.784;30.150;2023-02-28T00:57:04;10.31;;;6.10;;
61473;SDS011;53694;49.784;30.150;2023-02-28T00:58:05;10.34;;;5.40;;
61473;SDS011;53694;49.784;30.150;2023-02-28T00:59:07;9.50;;;5.56;;
61473;SDS011;53694;49.784;30.150;2023-02-28T01:00:09;6.81;;;4.07;;
61473;SDS011;53694;49.784;30.150;2023-02-28T01:01:11;9.24;;;4.06;;
61473;SDS011;53694;49.784;30.150;2023-02-28T01:02:13;8.99;;;3.81;;
61473;SDS011;53694;49.784;30.150;2023-02-28T01:03:15;8.07;;;3.52;;
61473;SDS011;53694;49.784;30.150;2023-02-28T01:04:17;6.96;;;3.74;;
61473;SDS011;53694;49.784;30.150;2023-02-28T01:05:19;7.39;;;3.71;;
61473;SDS011;53694;49.784;30.150;2023-02-28T01:06:21;9.70;;;4.78;;
61473;SDS011;53694;49.784;30.150;2023-02-28T01:07:23;8.55;;;4.78;;
61473;SDS011;53694;49.784;30.150;2023-02-28T01:08:24;9.50;;;5.00;;
61473;SDS011;53694;49.784;30.150;2023-02-28T01:09:26;8.71;;;4.85;;
61473;SDS011;53694;49.784;30.150;2023-02-28T01:10:28;8.90;;;4.83;;
61473;SDS011;53694;49.784;30.150;2023-02-28T01:11:30;11.52;;;5.31;;
61473;SDS011;53694;49.784;30.150;2023-02-28T01:12:32;10.57;;;5.31;;
61473;SDS011;53694;49.784;30.150;2023-02-28T01:13:33;10.81;;;5.56;;
61473;SDS011;53694;49.784;30.150;2023-02-28T01:14:35;10.63;;;5.69;;
61473;SDS011;53694;49.784;30.150;2023-02-28T01:15:36;10.58;;;5.83;;
61473;SDS011;53694;49.784;30.150;2023-02-28T01:16:40;12.41;;;5.99;;
61473;SDS011;53694;49.784;30.150;2023-02-28T01:17:42;13.36;;;6.33;;
61473;SDS011;53694;49.784;30.150;2023-02-28T01:18:43;10.27;;;5.57;;
61473;SDS011;53694;49.784;30.150;2023-02-28T01:19:45;12.09;;;6.30;;
61473;SDS011;53694;49.784;30.150;2023-02-28T01:20:46;12.45;;;5.92;;
61473;SDS011;53694;49.784;30.150;2023-02-28T01:21:48;11.03;;;5.75;;
61473;SDS011;53694;49.784;30.150;2023-02-28T01:22:50;12.38;;;6.15;;
61473;SDS011;53694;49.784;30.150;2023-02-28T01:23:51;10.11;;;5.47;;
61473;SDS011;53694;49.784;30.150;2023-02-28T01:24:53;11.83;;;6.44;;
61473;SDS011;53694;49.784;30.150;2023-02-28T01:25:54;10.09;;;5.87;;
61473;SDS011;53694;49.784;30.150;2023-02-28T01:26:56;8.43;;;5.30;;
61473;SDS011;53694;49.784;30.150;2023-02-28T01:27:57;10.08;;;5.28;;
61473;SDS011;53694;49.784;30.150;2023-02-28T01:28:59;11.83;;;5.67;;
61473;SDS011;53694;49.784;30.150;2023-02-28T01:30:00;9.50;;;5.20;;
61473;SDS011;53694;49.784;30.150;2023-02-28T01:31:02;10.01;;;5.65;;
61473;SDS011;53694;49.784;30.150;2023-02-28T01:32:04;9.91;;;5.21;;
61473;SDS011;53694;49.784;30.150;2023-02-28T01:33:05;8.94;;;5.34;;
61473;SDS011;53694;49.784;30.150;2023-02-28T01:34:07;10.23;;;5.58;;
61473;SDS011;53694;49.784;30.150;2023-02-28T01:35:09;9.19;;;5.35;;
61473;SDS011;53694;49.784;30.150;2023-02-28T01:36:12;11.05;;;5.61;;
61473;SDS011;53694;49.784;30.150;2023-02-28T01:37:15;10.06;;;5.80;;
61473;SDS011;53694;49.784;30.150;2023-02-28T01:38:17;8.76;;;4.69;;
61473;SDS011;53694;49.784;30.150;2023-02-28T01:39:18;6.96;;;3.76;;
61473;SDS011;53694;49.784;30.150;2023-02-28T01:40:20;6.99;;;3.63;;
61473;SDS011;53694;49.784;30.150;2023-02-28T01:41:23;6.90;;;3.69;;
61473;SDS011;53694;49.784;30.150;2023-02-28T01:42:26;7.84;;;3.86;;
61473;SDS011;53694;49.784;30.150;2023-02-28T01:43:32;7.09;;;3.95;;
61473;SDS011;53694;49.784;30.150;2023-02-28T01:44:55;7.59;;;4.38;;
61473;SDS011;53694;49.784;30.150;2023-02-28T01:47:06;8.86;;;4.27;;
61473;SDS011;53694;49.784;30.150;2023-02-28T01:48:08;9.37;;;4.63;;
61473;SDS011;53694;49.784;30.150;2023-02-28T01:49:15;8.71;;;4.37;;
61473;SDS011;53694;49.784;30.150;2023-02-28T01:50:24;8.07;;;4.68;;
61473;SDS011;53694;49.784;30.150;2023-02-28T01:51:29;8.79;;;4.60;;
61473;SDS011;53694;49.784;30.150;2023-02-28T01:52:32;8.76;;;5.09;;
61473;SDS011;53694;49.784;30.150;2023-02-28T01:53:37;8.81;;;4.58;;
61473;SDS011;53694;49.784;30.150;2023-02-28T01:54:40;9.95;;;4.96;;
61473;SDS011;53694;49.784;30.150;2023-02-28T01:55:42;8.49;;;5.13;;
61473;SDS011;53694;49.784;30.150;2023-02-28T01:56:48;9.06;;;5.18;;
61473;SDS011;53694;49.784;30.150;2023-02-28T01:57:52;11.67;;;5.49;;
61473;SDS011;53694;49.784;30.150;2023-02-28T01:58:57;9.79;;;5.58;;
61473;SDS011;53694;49.784;30.150;2023-02-28T02:00:00;10.13;;;5.41;;
61473;SDS011;53694;49.784;30.150;2023-02-28T02:01:05;8.62;;;5.63;;
61473;SDS011;53694;49.784;30.150;2023-02-28T02:02:06;10.14;;;5.46;;
61473;SDS011;53694;49.784;30.150;2023-02-28T02:03:09;10.47;;;5.58;;
61473;SDS011;53694;49.784;30.150;2023-02-28T02:04:13;9.84;;;5.32;;
61473;SDS011;53694;49.784;30.150;2023-02-28T02:05:16;9.08;;;4.90;;
61473;SDS011;53694;49.784;30.150;2023-02-28T02:06:20;10.62;;;5.14;;
61473;SDS011;53694;49.784;30.150;2023-02-28T02:07:23;9.17;;;5.14;;
61473;SDS011;53694;49.784;30.150;2023-02-28T02:08:28;10.44;;;6.09;;
61473;SDS011;53694;49.784;30.150;2023-02-28T02:09:30;8.57;;;5.43;;
61473;SDS011;53694;49.784;30.150;2023-02-28T02:10:36;9.53;;;4.96;;
61473;SDS011;53694;49.784;30.150;2023-02-28T02:11:46;9.47;;;5.27;;
61473;SDS011;53694;49.784;30.150;2023-02-28T02:12:54;12.49;;;5.83;;
61473;SDS011;53694;49.784;30.150;2023-02-28T02:15:32;10.08;;;5.11;;
61473;SDS011;53694;49.784;30.150;2023-02-28T02:17:09;8.37;;;4.91;;
61473;SDS011;53694;49.784;30.150;2023-02-28T02:18:20;9.63;;;5.16;;
61473;SDS011;53694;49.784;30.150;2023-02-28T02:27:23;6.62;;;3.25;;
61473;SDS011;53694;49.784;30.150;2023-02-28T02:31:42;7.83;;;4.17;;
61473;SDS011;53694;49.784;30.150;2023-02-28T02:34:16;6.89;;;3.62;;
61473;SDS011;53694;49.784;30.150;2023-02-28T02:40:09;9.28;;;4.11;;
61473;SDS011;53694;49.784;30.150;2023-02-28T02:43:06;9.96;;;4.88;;
61473;SDS011;53694;49.784;30.150;2023-02-28T02:43:48;14.99;;;6.66;;
61473;SDS011;53694;49.784;30.150;2023-02-28T02:44:58;17.88;;;9.11;;
61473;SDS011;53694;49.784;30.150;2023-02-28T02:46:12;18.79;;;10.23;;
61473;SDS011;53694;49.784;30.150;2023-02-28T02:47:29;14.42;;;7.13;;
61473;SDS011;53694;49.784;30.150;2023-02-28T02:48:33;10.54;;;5.31;;
61473;SDS011;53694;49.784;30.150;2023-02-28T02:49:38;10.55;;;4.89;;
61473;SDS011;53694;49.784;30.150;2023-02-28T02:50:43;7.74;;;4.36;;
61473;SDS011;53694;49.784;30.150;2023-02-28T02:51:57;9.28;;;4.62;;
61473;SDS011;53694;49.784;30.150;2023-02-28T02:53:02;9.06;;;4.57;;
61473;SDS011;53694;49.784;30.150;2023-02-28T02:54:13;8.51;;;4.74;;
61473;SDS011;53694;49.784;30.150;2023-02-28T02:55:21;9.71;;;4.41;;
61473;SDS011;53694;49.784;30.150;2023-02-28T02:56:25;10.01;;;5.06;;
61473;SDS011;53694;49.784;30.150;2023-02-28T02:57:30;10.14;;;4.74;;
61473;SDS011;53694;49.784;30.150;2023-02-28T02:58:37;7.76;;;4.18;;
61473;SDS011;53694;49.784;30.150;2023-02-28T02:59:40;10.80;;;4.55;;
61473;SDS011;53694;49.784;30.150;2023-02-28T03:00:44;9.94;;;4.44;;
61473;SDS011;53694;49.784;30.150;2023-02-28T03:01:52;10.23;;;4.69;;
61473;SDS011;53694;49.784;30.150;2023-02-28T03:02:56;10.52;;;4.98;;
61473;SDS011;53694;49.784;30.150;2023-02-28T03:04:10;11.03;;;5.52;;
61473;SDS011;53694;49.784;30.150;2023-02-28T03:05:21;10.60;;;5.33;;
61473;SDS011;53694;49.784;30.150;2023-02-28T03:06:25;10.47;;;5.30;;
61473;SDS011;53694;49.784;30.150;2023-02-28T03:07:27;9.38;;;5.15;;
61473;SDS011;53694;49.784;30.150;2023-02-28T03:08:31;10.77;;;5.55;;
61473;SDS011;53694;49.784;30.150;2023-02-28T03:09:34;15.19;;;8.23;;
61473;SDS011;53694;49.784;30.150;2023-02-28T03:10:37;10.27;;;5.19;;
61473;SDS011;53694;49.784;30.150;2023-02-28T03:11:41;10.73;;;5.70;;
61473;SDS011;53694;49.784;30.150;2023-02-28T03:12:47;13.39;;;7.66;;
61473;SDS011;53694;49.784;30.150;2023-02-28T03:13:58;12.19;;;6.37;;
61473;SDS011;53694;49.784;30.150;2023-02-28T03:15:10;11.54;;;6.26;;
61473;SDS011;53694;49.784;30.150;2023-02-28T03:16:33;12.08;;;6.61;;
61473;SDS011;53694;49.784;30.150;2023-02-28T03:17:53;11.06;;;6.33;;
61473;SDS011;53694;49.784;30.150;2023-02-28T03:19:13;12.96;;;6.30;;
61473;SDS011;53694;49.784;30.150;2023-02-28T03:22:55;11.56;;;5.62;;
61473;SDS011;53694;49.784;30.150;2023-02-28T03:25:27;9.97;;;5.10;;
61473;SDS011;53694;49.784;30.150;2023-02-28T03:26:26;10.15;;;5.22;;
61473;SDS011;53694;49.784;30.150;2023-02-28T03:31:22;10.92;;;5.37;;
61473;SDS011;53694;49.784;30.150;2023-02-28T03:32:36;10.24;;;5.55;;
61473;SDS011;53694;49.784;30.150;2023-02-28T03:33:42;16.94;;;8.04;;
61473;SDS011;53694;49.784;30.150;2023-02-28T03:34:45;16.16;;;8.56;;
61473;SDS011;53694;49.784;30.150;2023-02-28T03:35:58;29.60;;;13.53;;
61473;SDS011;53694;49.784;30.150;2023-02-28T03:37:03;22.73;;;10.54;;
61473;SDS011;53694;49.784;30.150;2023-02-28T03:39:33;13.15;;;7.04;;
61473;SDS011;53694;49.784;30.150;2023-02-28T03:40:39;12.54;;;6.76;;
61473;SDS011;53694;49.784;30.150;2023-02-28T03:41:45;10.99;;;6.37;;
61473;SDS011;53694;49.784;30.150;2023-02-28T03:42:50;13.93;;;6.56;;
61473;SDS011;53694;49.784;30.150;2023-02-28T03:44:03;10.34;;;5.84;;
61473;SDS011;53694;49.784;30.150;2023-02-28T03:45:10;11.14;;;6.12;;
61473;SDS011;53694;49.784;30.150;2023-02-28T03:46:14;13.37;;;6.72;;
61473;SDS011;53694;49.784;30.150;2023-02-28T03:47:24;11.16;;;5.81;;
61473;SDS011;53694;49.784;30.150;2023-02-28T03:48:31;10.76;;;6.19;;
61473;SDS011;53694;49.784;30.150;2023-02-28T03:49:45;10.98;;;6.01;;
61473;SDS011;53694;49.784;30.150;2023-02-28T03:50:51;11.53;;;6.14;;
61473;SDS011;53694;49.784;30.150;2023-02-28T03:51:55;12.34;;;6.31;;
61473;SDS011;53694;49.784;30.150;2023-02-28T03:53:04;10.78;;;5.69;;
61473;SDS011;53694;49.784;30.150;2023-02-28T03:54:09;11.58;;;5.22;;
61473;SDS011;53694;49.784;30.150;2023-02-28T03:55:13;11.95;;;5.61;;
61473;SDS011;53694;49.784;30.150;2023-02-28T03:56:22;12.79;;;5.93;;
61473;SDS011;53694;49.784;30.150;2023-02-28T03:57:40;10.33;;;5.61;;
61473;SDS011;53694;49.784;30.150;2023-02-28T04:00:21;15.67;;;5.65;;
61473;SDS011;53694;49.784;30.150;2023-02-28T04:01:35;12.71;;;6.57;;
61473;SDS011;53694;49.784;30.150;2023-02-28T04:02:41;16.27;;;9.04;;
61473;SDS011;53694;49.784;30.150;2023-02-28T04:03:43;19.21;;;11.10;;
61473;SDS011;53694;49.784;30.150;2023-02-28T04:04:45;25.08;;;13.34;;
61473;SDS011;53694;49.784;30.150;2023-02-28T04:05:50;27.94;;;16.43;;
61473;SDS011;53694;49.784;30.150;2023-02-28T04:07:00;21.79;;;14.47;;
61473;SDS011;53694;49.784;30.150;2023-02-28T04:08:06;20.64;;;12.52;;
61473;SDS011;53694;49.784;30.150;2023-02-28T04:09:11;18.29;;;10.46;;
61473;SDS011;53694;49.784;30.150;2023-02-28T04:10:14;20.04;;;9.56;;
61473;SDS011;53694;49.784;30.150;2023-02-28T04:12:43;17.95;;;9.98;;
61473;SDS011;53694;49.784;30.150;2023-02-28T04:13:45;16.99;;;10.34;;
61473;SDS011;53694;49.784;30.150;2023-02-28T04:14:46;13.12;;;7.71;;
61473;SDS011;53694;49.784;30.150;2023-02-28T04:15:48;18.51;;;8.64;;
61473;SDS011;53694;49.784;30.150;2023-02-28T04:16:49;14.10;;;6.58;;
61473;SDS011;53694;49.784;30.150;2023-02-28T04:17:51;13.16;;;6.51;;
61473;SDS011;53694;49.784;30.150;2023-02-28T04:18:52;13.30;;;6.95;;
61473;SDS011;53694;49.784;30.150;2023-02-28T04:19:54;12.84;;;6.62;;
61473;SDS011;53694;49.784;30.150;2023-02-28T04:20:59;14.53;;;7.20;;
61473;SDS011;53694;49.784;30.150;2023-02-28T04:22:01;13.47;;;6.72;;
61473;SDS011;53694;49.784;30.150;2023-02-28T04:23:02;13.89;;;7.71;;
61473;SDS011;53694;49.784;30.150;2023-02-28T04:24:04;11.43;;;6.44;;
61473;SDS011;53694;49.784;30.150;2023-02-28T04:25:07;12.84;;;6.93;;
61473;SDS011;53694;49.784;30.150;2023-02-28T04:26:09;12.18;;;6.44;;
61473;SDS011;53694;49.784;30.150;2023-02-28T04:27:11;11.96;;;6.71;;
61473;SDS011;53694;49.784;30.150;2023-02-28T04:28:12;13.57;;;6.75;;
61473;SDS011;53694;49.784;30.150;2023-02-28T04:29:17;13.49;;;6.67;;
61473;SDS011;53694;49.784;30.150;2023-02-28T04:30:25;15.34;;;6.59;;
61473;SDS011;53694;49.784;30.150;2023-02-28T04:31:26;11.61;;;6.59;;
61473;SDS011;53694;49.784;30.150;2023-02-28T04:32:28;12.95;;;6.85;;
61473;SDS011;53694;49.784;30.150;2023-02-28T04:33:30;12.79;;;6.59;;
61473;SDS011;53694;49.784;30.150;2023-02-28T04:34:33;12.81;;;6.60;;
61473;SDS011;53694;49.784;30.150;2023-02-28T04:35:34;12.60;;;6.96;;
61473;SDS011;53694;49.784;30.150;2023-02-28T04:36:36;11.73;;;6.51;;
61473;SDS011;53694;49.784;30.150;2023-02-28T04:37:37;10.98;;;6.31;;
61473;SDS011;53694;49.784;30.150;2023-02-28T04:38:39;13.30;;;6.96;;
61473;SDS011;53694;49.784;30.150;2023-02-28T04:39:41;12.56;;;6.80;;
61473;SDS011;53694;49.784;30.150;2023-02-28T04:40:43;13.64;;;5.89;;
61473;SDS011;53694;49.784;30.150;2023-02-28T04:41:45;12.90;;;6.50;;
61473;SDS011;53694;49.784;30.150;2023-02-28T04:42:47;12.37;;;6.00;;
61473;SDS011;53694;49.784;30.150;2023-02-28T04:43:48;13.23;;;6.47;;
61473;SDS011;53694;49.784;30.150;2023-02-28T04:44:51;12.53;;;6.62;;
61473;SDS011;53694;49.784;30.150;2023-02-28T04:45:53;13.61;;;6.76;;
61473;SDS011;53694;49.784;30.150;2023-02-28T04:46:55;10.89;;;5.71;;
61473;SDS011;53694;49.784;30.150;2023-02-28T04:47:57;13.64;;;6.40;;
61473;SDS011;53694;49.784;30.150;2023-02-28T04:48:59;9.22;;;5.48;;
61473;SDS011;53694;49.784;30.150;2023-02-28T04:50:00;11.73;;;6.13;;
61473;SDS011;53694;49.784;30.150;2023-02-28T04:51:03;12.84;;;7.22;;
61473;SDS011;53694;49.784;30.150;2023-02-28T04:52:06;11.38;;;5.68;;
61473;SDS011;53694;49.784;30.150;2023-02-28T04:53:07;13.04;;;5.84;;
61473;SDS011;53694;49.784;30.150;2023-02-28T04:54:09;11.95;;;6.07;;
61473;SDS011;53694;49.784;30.150;2023-02-28T04:55:10;12.96;;;6.01;;
61473;SDS011;53694;49.784;30.150;2023-02-28T04:56:13;11.22;;;6.38;;
61473;SDS011;53694;49.784;30.150;2023-02-28T04:57:16;11.48;;;5.77;;
61473;SDS011;53694;49.784;30.150;2023-02-28T04:58:18;10.54;;;5.86;;
61473;SDS011;53694;49.784;30.150;2023-02-28T04:59:20;11.94;;;5.92;;
61473;SDS011;53694;49.784;30.150;2023-02-28T05:00:21;12.74;;;6.35;;
61473;SDS011;53694;49.784;30.150;2023-02-28T05:02:30;12.07;;;6.52;;
61473;SDS011;53694;49.784;30.150;2023-02-28T05:03:34;13.08;;;6.19;;
61473;SDS011;53694;49.784;30.150;2023-02-28T05:04:35;11.84;;;6.45;;
61473;SDS011;53694;49.784;30.150;2023-02-28T05:05:37;14.72;;;5.99;;
61473;SDS011;53694;49.784;30.150;2023-02-28T05:06:39;12.85;;;6.07;;
61473;SDS011;53694;49.784;30.150;2023-02-28T05:07:40;10.88;;;6.06;;
61473;SDS011;53694;49.784;30.150;2023-02-28T05:08:42;28.45;;;12.92;;
61473;SDS011;53694;49.784;30.150;2023-02-28T05:09:44;12.59;;;6.34;;
61473;SDS011;53694;49.784;30.150;2023-02-28T05:10:45;14.63;;;7.73;;
61473;SDS011;53694;49.784;30.150;2023-02-28T05:11:47;12.58;;;6.74;;
61473;SDS011;53694;49.784;30.150;2023-02-28T05:12:48;8.93;;;5.37;;
61473;SDS011;53694;49.784;30.150;2023-02-28T05:13:50;11.54;;;5.79;;
61473;SDS011;53694;49.784;30.150;2023-02-28T05:14:52;12.17;;;5.67;;
61473;SDS011;53694;49.784;30.150;2023-02-28T05:15:54;14.77;;;6.06;;
61473;SDS011;53694;49.784;30.150;2023-02-28T05:16:56;14.99;;;6.01;;
61473;SDS011;53694;49.784;30.150;2023-02-28T05:17:58;9.83;;;5.31;;
61473;SDS011;53694;49.784;30.150;2023-02-28T05:18:59;12.36;;;5.99;;
61473;SDS011;53694;49.784;30.150;2023-02-28T05:20:01;9.27;;;5.57;;
61473;SDS011;53694;49.784;30.150;2023-02-28T05:21:02;11.86;;;5.54;;
61473;SDS011;53694;49.784;30.150;2023-02-28T05:22:04;11.36;;;5.56;;
61473;SDS011;53694;49.784;30.150;2023-02-28T05:23:05;11.65;;;5.70;;
61473;SDS011;53694;49.784;30.150;2023-02-28T05:24:09;12.02;;;6.24;;
61473;SDS011;53694;49.784;30.150;2023-02-28T05:25:12;21.04;;;11.06;;
61473;SDS011;53694;49.784;30.150;2023-02-28T05:26:16;16.38;;;8.15;;
61473;SDS011;53694;49.784;30.150;2023-02-28T05:27:17;15.49;;;8.26;;
61473;SDS011;53694;49.784;30.150;2023-02-28T05:28:19;11.83;;;5.81;;
61473;SDS011;53694;49.784;30.150;2023-02-28T05:29:21;13.44;;;5.88;;
61473;SDS011;53694;49.784;30.150;2023-02-28T05:30:23;11.31;;;5.93;;
61473;SDS011;53694;49.784;30.150;2023-02-28T05:31:24;12.73;;;6.42;;
61473;SDS011;53694;49.784;30.150;2023-02-28T05:32:26;13.41;;;6.19;;
61473;SDS011;53694;49.784;30.150;2023-02-28T05:33:28;14.13;;;6.12;;
61473;SDS011;53694;49.784;30.150;2023-02-28T05:34:29;13.86;;;5.74;;
61473;SDS011;53694;49.784;30.150;2023-02-28T05:35:31;12.61;;;5.82;;
61473;SDS011;53694;49.784;30.150;2023-02-28T05:36:33;10.35;;;5.53;;
61473;SDS011;53694;49.784;30.150;2023-02-28T05:37:35;19.77;;;6.73;;
61473;SDS011;53694;49.784;30.150;2023-02-28T05:38:37;12.23;;;5.78;;
61473;SDS011;53694;49.784;30.150;2023-02-28T05:39:38;10.29;;;5.29;;
61473;SDS011;53694;49.784;30.150;2023-02-28T05:40:40;10.52;;;5.83;;
61473;SDS011;53694;49.784;30.150;2023-02-28T05:41:42;13.17;;;5.82;;
61473;SDS011;53694;49.784;30.150;2023-02-28T05:42:44;11.02;;;6.67;;
61473;SDS011;53694;49.784;30.150;2023-02-28T05:43:46;11.39;;;5.51;;
61473;SDS011;53694;49.784;30.150;2023-02-28T05:44:48;12.80;;;6.52;;
61473;SDS011;53694;49.784;30.150;2023-02-28T05:45:50;10.77;;;6.53;;
61473;SDS011;53694;49.784;30.150;2023-02-28T05:46:53;13.17;;;6.05;;
61473;SDS011;53694;49.784;30.150;2023-02-28T05:47:54;11.10;;;5.71;;
61473;SDS011;53694;49.784;30.150;2023-02-28T05:48:56;10.69;;;5.15;;
61473;SDS011;53694;49.784;30.150;2023-02-28T05:49:58;12.79;;;5.94;;
61473;SDS011;53694;49.784;30.150;2023-02-28T05:50:59;11.81;;;6.08;;
61473;SDS011;53694;49.784;30.150;2023-02-28T05:52:01;12.14;;;5.74;;
61473;SDS011;53694;49.784;30.150;2023-02-28T05:53:03;10.96;;;5.82;;
61473;SDS011;53694;49.784;30.150;2023-02-28T05:54:05;11.02;;;5.82;;
61473;SDS011;53694;49.784;30.150;2023-02-28T05:55:07;11.28;;;5.63;;
61473;SDS011;53694;49.784;30.150;2023-02-28T05:56:10;12.84;;;6.19;;
61473;SDS011;53694;49.784;30.150;2023-02-28T05:57:12;9.74;;;5.48;;
61473;SDS011;53694;49.784;30.150;2023-02-28T05:58:14;10.21;;;5.65;;
61473;SDS011;53694;49.784;30.150;2023-02-28T05:59:15;10.40;;;5.34;;
61473;SDS011;53694;49.784;30.150;2023-02-28T06:00:18;10.74;;;5.50;;
61473;SDS011;53694;49.784;30.150;2023-02-28T06:01:33;15.79;;;6.21;;
61473;SDS011;53694;49.784;30.150;2023-02-28T06:02:40;8.83;;;5.30;;
61473;SDS011;53694;49.784;30.150;2023-02-28T06:03:41;9.91;;;5.06;;
61473;SDS011;53694;49.784;30.150;2023-02-28T06:04:43;11.47;;;5.37;;
61473;SDS011;53694;49.784;30.150;2023-02-28T06:05:46;10.34;;;4.49;;
61473;SDS011;53694;49.784;30.150;2023-02-28T06:06:48;8.23;;;4.55;;
61473;SDS011;53694;49.784;30.150;2023-02-28T06:07:50;10.06;;;5.03;;
61473;SDS011;53694;49.784;30.150;2023-02-28T06:08:52;8.88;;;4.46;;
61473;SDS011;53694;49.784;30.150;2023-02-28T06:09:53;9.80;;;4.82;;
61473;SDS011;53694;49.784;30.150;2023-02-28T06:10:55;9.72;;;4.91;;
61473;SDS011;53694;49.784;30.150;2023-02-28T06:11:59;8.71;;;4.87;;
61473;SDS011;53694;49.784;30.150;2023-02-28T06:13:03;10.46;;;5.00;;
61473;SDS011;53694;49.784;30.150;2023-02-28T06:14:05;9.05;;;5.29;;
61473;SDS011;53694;49.784;30.150;2023-02-28T06:15:10;11.57;;;5.38;;
61473;SDS011;53694;49.784;30.150;2023-02-28T06:16:13;11.70;;;5.77;;
61473;SDS011;53694;49.784;30.150;2023-02-28T06:17:14;11.85;;;5.09;;
61473;SDS011;53694;49.784;30.150;2023-02-28T06:18:16;11.26;;;5.13;;
61473;SDS011;53694;49.784;30.150;2023-02-28T06:19:17;12.92;;;6.01;;
61473;SDS011;53694;49.784;30.150;2023-02-28T06:20:19;12.63;;;5.93;;
61473;SDS011;53694;49.784;30.150;2023-02-28T06:21:20;11.76;;;5.97;;
61473;SDS011;53694;49.784;30.150;2023-02-28T06:22:22;8.97;;;4.59;;
61473;SDS011;53694;49.784;30.150;2023-02-28T06:23:24;7.84;;;4.39;;
61473;SDS011;53694;49.784;30.150;2023-02-28T06:24:26;12.11;;;5.14;;
61473;SDS011;53694;49.784;30.150;2023-02-28T06:25:27;11.00;;;5.02;;
61473;SDS011;53694;49.784;30.150;2023-02-28T06:26:29;12.69;;;5.26;;
61473;SDS011;53694;49.784;30.150;2023-02-28T06:27:32;10.95;;;4.49;;
61473;SDS011;53694;49.784;30.150;2023-02-28T06:28:34;12.73;;;5.81;;
61473;SDS011;53694;49.784;30.150;2023-02-28T06:29:36;8.76;;;5.13;;
61473;SDS011;53694;49.784;30.150;2023-02-28T06:30:38;12.56;;;5.41;;
61473;SDS011;53694;49.784;30.150;2023-02-28T06:31:39;11.47;;;5.68;;
61473;SDS011;53694;49.784;30.150;2023-02-28T06:32:41;9.86;;;5.44;;
61473;SDS011;53694;49.784;30.150;2023-02-28T06:33:43;11.60;;;4.96;;
61473;SDS011;53694;49.784;30.150;2023-02-28T06:34:46;8.95;;;5.38;;
61473;SDS011;53694;49.784;30.150;2023-02-28T06:35:50;14.82;;;6.19;;
61473;SDS011;53694;49.784;30.150;2023-02-28T06:36:52;14.72;;;6.14;;
61473;SDS011;53694;49.784;30.150;2023-02-28T06:37:54;9.73;;;5.30;;
61473;SDS011;53694;49.784;30.150;2023-02-28T06:38:56;9.80;;;5.01;;
61473;SDS011;53694;49.784;30.150;2023-02-28T06:39:57;9.57;;;4.92;;
61473;SDS011;53694;49.784;30.150;2023-02-28T06:40:59;10.79;;;5.72;;
61473;SDS011;53694;49.784;30.150;2023-02-28T06:42:02;10.27;;;5.41;;
61473;SDS011;53694;49.784;30.150;2023-02-28T06:43:03;10.74;;;5.01;;
61473;SDS011;53694;49.784;30.150;2023-02-28T06:44:05;10.67;;;5.16;;
61473;SDS011;53694;49.784;30.150;2023-02-28T06:45:13;9.73;;;4.99;;
61473;SDS011;53694;49.784;30.150;2023-02-28T06:46:15;10.86;;;5.24;;
61473;SDS011;53694;49.784;30.150;2023-02-28T06:47:16;8.84;;;5.29;;
61473;SDS011;53694;49.784;30.150;2023-02-28T06:48:18;11.91;;;5.19;;